createdAt,value
2022-12-12T00:01:26.733Z,18.15
2022-12-12T00:03:55.289Z,17.52
2022-12-12T00:06:24.135Z,19.88
2022-12-12T00:08:52.803Z,19.25
2022-12-12T00:11:21.873Z,18.40
2022-12-12T00:13:50.011Z,18.88
2022-12-12T00:16:18.903Z,18.77
2022-12-12T00:18:48.319Z,19.00
2022-12-12T00:21:19.694Z,19.50
2022-12-12T00:23:48.094Z,18.80
2022-12-12T00:26:21.090Z,17.77
2022-12-12T00:28:49.072Z,18.23
2022-12-12T00:31:17.890Z,17.92
2022-12-12T00:33:48.549Z,18.42
2022-12-12T00:36:19.821Z,19.45
2022-12-12T00:38:48.795Z,18.42
2022-12-12T00:41:17.570Z,18.60
2022-12-12T00:43:45.655Z,18.98
2022-12-12T00:46:16.540Z,18.48
2022-12-12T00:48:44.716Z,18.83
2022-12-12T00:51:16.279Z,18.92
2022-12-12T00:53:45.767Z,18.50
2022-12-12T00:56:15.940Z,17.88
2022-12-12T00:58:44.427Z,17.95
2022-12-12T01:01:13.941Z,19.25
2022-12-12T01:03:43.471Z,17.33
2022-12-12T01:06:11.899Z,19.08
2022-12-12T01:08:40.803Z,19.75
2022-12-12T01:11:12.295Z,18.58
2022-12-12T01:13:41.221Z,18.13
2022-12-12T01:16:09.892Z,18.73
2022-12-12T01:18:39.061Z,19.13
2022-12-12T01:21:09.871Z,19.27
2022-12-12T01:23:38.278Z,19.38
2022-12-12T01:26:08.666Z,17.92
2022-12-12T01:28:38.654Z,19.63
2022-12-12T01:31:07.401Z,19.15
2022-12-12T01:33:35.653Z,18.83
2022-12-12T01:36:05.576Z,19.77
2022-12-12T01:38:33.841Z,20.02
2022-12-12T01:41:02.299Z,19.80
2022-12-12T01:43:30.715Z,19.63
2022-12-12T01:46:38.054Z,19.17
2022-12-12T01:49:14.273Z,19.83
2022-12-12T01:51:43.213Z,20.20
2022-12-12T01:54:15.117Z,19.60
2022-12-12T01:56:45.897Z,18.77
2022-12-12T01:59:16.280Z,20.10
2022-12-12T02:01:45.037Z,20.30
2022-12-12T02:04:17.513Z,18.90
2022-12-12T02:06:47.155Z,19.88
2022-12-12T02:09:16.988Z,20.75
2022-12-12T02:11:47.951Z,21.27
2022-12-12T02:14:20.047Z,21.35
2022-12-12T02:17:04.382Z,19.17
2022-12-12T02:20:10.671Z,20.60
2022-12-12T02:25:39.173Z,20.17
2022-12-12T02:28:34.064Z,18.95
2022-12-12T02:31:15.708Z,14.15
2022-12-12T02:33:54.228Z,20.42
2022-12-12T02:36:35.745Z,19.58
2022-12-12T02:39:11.571Z,19.42
2022-12-12T02:41:43.822Z,18.52
2022-12-12T02:44:25.618Z,19.52
2022-12-12T02:47:02.832Z,20.35
2022-12-12T02:49:34.720Z,18.73
2022-12-12T02:52:05.635Z,19.42
2022-12-12T02:54:35.027Z,18.20
2022-12-12T02:57:13.902Z,18.92
2022-12-12T02:59:44.261Z,19.55
2022-12-12T03:02:48.766Z,17.25
2022-12-12T03:05:55.626Z,18.17
2022-12-12T03:08:40.281Z,18.25
2022-12-12T03:11:12.587Z,17.40
2022-12-12T03:13:49.028Z,17.20
2022-12-12T03:16:26.461Z,18.35
2022-12-12T03:19:01.922Z,18.10
2022-12-12T03:21:39.347Z,18.77
2022-12-12T03:24:12.638Z,18.13
2022-12-12T03:26:48.762Z,17.95
2022-12-12T03:29:21.026Z,17.63
2022-12-12T03:31:56.504Z,17.20
2022-12-12T03:34:30.769Z,18.10
2022-12-12T03:37:07.268Z,16.80
2022-12-12T03:39:41.487Z,18.27
2022-12-12T03:42:14.455Z,17.33
2022-12-12T03:44:47.182Z,17.50
2022-12-12T03:47:20.543Z,18.10
2022-12-12T03:49:55.188Z,18.75
2022-12-12T03:52:27.448Z,17.02
2022-12-12T03:55:01.015Z,16.60
2022-12-12T03:57:35.155Z,17.40
2022-12-12T04:00:07.226Z,16.88
2022-12-12T04:02:41.792Z,17.15
2022-12-12T04:05:17.598Z,16.88
2022-12-12T04:07:50.777Z,18.65
2022-12-12T04:10:36.288Z,17.67
2022-12-12T04:15:58.873Z,16.92
2022-12-12T04:18:34.934Z,16.55
2022-12-12T04:21:29.489Z,15.65
2022-12-12T04:24:04.100Z,17.35
2022-12-12T04:26:42.357Z,16.02
2022-12-12T04:29:27.966Z,16.63
2022-12-12T04:31:59.735Z,16.05
2022-12-12T04:34:37.522Z,15.07
2022-12-12T04:37:09.372Z,15.93
2022-12-12T04:39:40.845Z,15.93
2022-12-12T04:42:12.876Z,16.23
2022-12-12T04:44:44.047Z,16.65
2022-12-12T04:47:14.986Z,16.38
2022-12-12T04:49:45.234Z,16.17
2022-12-12T04:52:17.051Z,15.85
2022-12-12T04:54:52.745Z,16.05
2022-12-12T04:57:26.568Z,17.15
2022-12-12T04:59:55.103Z,15.50
2022-12-12T05:02:32.374Z,15.93
2022-12-12T05:05:04.905Z,16.25
2022-12-12T05:07:40.254Z,15.00
2022-12-12T05:10:12.748Z,14.70
2022-12-12T05:12:42.560Z,16.38
2022-12-12T05:15:11.417Z,15.73
2022-12-12T05:17:45.806Z,17.02
2022-12-12T05:20:14.081Z,16.42
2022-12-12T05:22:43.474Z,16.10
2022-12-12T05:25:12.577Z,15.00
2022-12-12T05:27:40.649Z,16.73
2022-12-12T05:30:11.187Z,15.32
2022-12-12T05:32:39.322Z,15.98
2022-12-12T05:35:09.665Z,15.52
2022-12-12T05:37:37.549Z,15.10
2022-12-12T05:40:09.389Z,16.67
2022-12-12T05:42:37.254Z,15.80
2022-12-12T05:45:06.482Z,14.95
2022-12-12T05:47:34.355Z,16.35
2022-12-12T05:50:02.768Z,16.38
2022-12-12T05:52:30.672Z,15.25
2022-12-12T05:54:58.697Z,15.25
2022-12-12T05:57:28.142Z,16.02
2022-12-12T05:59:56.434Z,15.35
2022-12-12T06:02:24.346Z,16.70
2022-12-12T06:04:52.682Z,15.68
2022-12-12T06:07:20.562Z,16.05
2022-12-12T06:09:48.697Z,15.35
2022-12-12T06:12:16.468Z,15.98
2022-12-12T06:14:45.686Z,15.32
2022-12-12T06:17:13.567Z,15.15
2022-12-12T06:19:42.211Z,16.58
2022-12-12T06:22:10.481Z,16.45
2022-12-12T06:24:38.360Z,16.02
2022-12-12T06:27:07.750Z,15.93
2022-12-12T06:29:35.752Z,16.88
2022-12-12T06:32:05.554Z,16.52
2022-12-12T06:34:34.035Z,17.02
2022-12-12T06:37:02.150Z,15.43
2022-12-12T06:39:30.588Z,15.48
2022-12-12T06:41:58.897Z,16.30
2022-12-12T06:44:26.665Z,15.52
2022-12-12T06:46:55.423Z,17.15
2022-12-12T06:49:24.915Z,16.05
2022-12-12T06:51:52.793Z,15.75
2022-12-12T06:54:20.732Z,15.88
2022-12-12T06:56:49.186Z,16.48
2022-12-12T06:59:17.412Z,16.95
2022-12-12T07:01:46.213Z,17.00
2022-12-12T07:04:14.867Z,16.27
2022-12-12T07:06:44.474Z,16.50
2022-12-12T07:09:12.397Z,17.95
2022-12-12T07:11:41.877Z,17.33
2022-12-12T07:14:11.217Z,16.52
2022-12-12T07:16:39.908Z,17.27
2022-12-12T07:19:07.610Z,17.55
2022-12-12T07:21:35.825Z,17.77
2022-12-12T07:24:04.982Z,17.02
2022-12-12T07:26:33.266Z,16.73
2022-12-12T07:29:03.594Z,17.15
2022-12-12T07:31:31.281Z,17.50
2022-12-12T07:33:59.536Z,17.38
2022-12-12T07:36:27.228Z,17.38
2022-12-12T07:38:55.238Z,17.95
2022-12-12T07:41:24.260Z,16.65
2022-12-12T07:43:52.675Z,18.38
2022-12-12T07:46:23.934Z,18.02
2022-12-12T07:48:52.725Z,18.42
2022-12-12T07:51:21.077Z,19.95
2022-12-12T07:53:48.927Z,19.17
2022-12-12T07:56:18.089Z,18.65
2022-12-12T07:58:47.786Z,18.60
2022-12-12T08:01:17.841Z,17.90
2022-12-12T08:03:46.551Z,19.33
2022-12-12T08:06:17.609Z,19.13
2022-12-12T08:08:46.417Z,17.40
2022-12-12T08:11:16.423Z,18.83
2022-12-12T08:13:45.143Z,17.63
2022-12-12T08:16:16.870Z,19.02
2022-12-12T08:18:45.883Z,18.42
2022-12-12T08:21:18.791Z,17.88
2022-12-12T08:23:52.506Z,18.48
2022-12-12T08:26:20.847Z,18.00
2022-12-12T08:28:49.874Z,19.35
2022-12-12T08:31:20.654Z,18.00
2022-12-12T08:33:50.484Z,19.02
2022-12-12T08:41:57.985Z,16.25
2022-12-12T08:44:25.770Z,17.45
2022-12-12T08:46:55.148Z,18.30
2022-12-12T08:49:23.159Z,18.17
2022-12-12T08:51:54.440Z,18.98
2022-12-12T08:57:11.391Z,18.00
2022-12-12T08:59:39.275Z,16.20
2022-12-12T09:02:10.000Z,16.98
2022-12-12T09:04:38.175Z,17.88
2022-12-12T09:07:08.633Z,17.63
2022-12-12T09:09:36.806Z,16.10
2022-12-12T09:12:04.662Z,17.00
2022-12-12T09:14:32.718Z,17.20
2022-12-12T09:17:00.333Z,17.30
2022-12-12T09:19:29.571Z,16.85
2022-12-12T09:21:57.577Z,17.35
2022-12-12T09:24:26.201Z,17.42
2022-12-12T09:26:53.943Z,18.25
2022-12-12T09:29:22.048Z,17.27
2022-12-12T09:31:49.814Z,17.45
2022-12-12T09:34:17.698Z,16.83
2022-12-12T09:36:46.727Z,16.50
2022-12-12T09:39:14.696Z,15.65
2022-12-12T09:41:42.668Z,17.52
2022-12-12T09:44:15.883Z,16.40
2022-12-12T09:46:47.214Z,16.13
2022-12-12T09:49:18.336Z,16.92
2022-12-12T09:51:50.530Z,16.00
2022-12-12T09:54:21.294Z,14.57
2022-12-12T09:57:03.310Z,15.05
2022-12-12T09:59:38.916Z,13.88
2022-12-12T10:02:27.254Z,15.85
2022-12-12T10:05:01.474Z,14.30
2022-12-12T10:07:36.532Z,16.23
2022-12-12T10:12:39.096Z,14.43
2022-12-12T10:15:14.126Z,14.73
2022-12-12T10:17:44.914Z,14.85
2022-12-12T10:20:17.647Z,14.15
2022-12-12T10:22:50.696Z,13.65
2022-12-12T10:25:21.872Z,13.90
2022-12-12T10:27:53.524Z,14.02
2022-12-12T10:30:22.272Z,14.55
2022-12-12T10:33:14.366Z,14.75
2022-12-12T10:35:53.747Z,14.75
2022-12-12T10:38:38.303Z,13.63
2022-12-12T10:41:12.957Z,14.55
2022-12-12T10:43:46.983Z,13.93
2022-12-12T10:46:23.208Z,14.00
2022-12-12T10:48:52.623Z,13.68
2022-12-12T10:51:23.824Z,12.70
2022-12-12T10:53:53.923Z,13.23
2022-12-12T10:56:24.160Z,12.63
2022-12-12T10:58:56.471Z,12.35
2022-12-12T11:02:00.650Z,12.55
2022-12-12T11:04:17.111Z,13.00
2022-12-12T11:06:48.833Z,13.55
2022-12-12T11:09:20.470Z,13.80
2022-12-12T11:11:59.295Z,12.30
2022-12-12T11:14:33.258Z,13.07
2022-12-12T11:17:00.947Z,13.23
2022-12-12T11:19:37.324Z,13.15
2022-12-12T11:22:05.693Z,13.38
2022-12-12T11:24:35.920Z,12.75
2022-12-12T11:27:06.481Z,14.25
2022-12-12T11:29:43.550Z,20.10
2022-12-12T11:32:15.792Z,18.30
2022-12-12T11:34:49.032Z,14.52
2022-12-12T11:37:18.835Z,15.02
2022-12-12T11:39:51.889Z,14.38
2022-12-12T11:42:23.033Z,13.38
2022-12-12T11:45:00.423Z,13.52
2022-12-12T11:47:31.143Z,17.15
2022-12-12T11:50:00.343Z,26.38
2022-12-12T11:52:31.398Z,15.07
2022-12-12T11:55:01.731Z,19.35
2022-12-12T11:57:56.652Z,18.73
2022-12-12T12:00:39.417Z,16.05
2022-12-12T12:06:26.220Z,15.50
2022-12-12T12:09:23.343Z,21.63
2022-12-12T12:12:01.293Z,17.00
2022-12-12T12:14:50.339Z,14.77
2022-12-12T12:17:29.144Z,13.90
2022-12-12T12:20:08.367Z,17.27
2022-12-12T12:22:50.442Z,13.50
2022-12-12T12:25:31.337Z,13.50
2022-12-12T12:28:20.705Z,13.45
2022-12-12T12:30:57.924Z,12.85
2022-12-12T12:33:41.294Z,13.50
2022-12-12T12:36:21.048Z,12.90
2022-12-12T12:38:57.953Z,13.32
2022-12-12T12:41:36.082Z,12.02
2022-12-12T12:44:25.714Z,12.48
2022-12-12T12:47:03.562Z,14.02
2022-12-12T12:49:35.563Z,11.93
2022-12-12T12:52:10.979Z,12.35
2022-12-12T12:54:40.683Z,13.07
2022-12-12T12:57:13.327Z,22.92
2022-12-12T12:59:48.419Z,18.20
2022-12-12T13:02:27.186Z,16.75
2022-12-12T13:05:06.833Z,13.65
2022-12-12T13:07:43.585Z,15.93
2022-12-12T13:10:22.732Z,18.88
2022-12-12T13:12:57.020Z,16.85
2022-12-12T13:15:30.087Z,13.93
2022-12-12T13:18:04.034Z,13.43
2022-12-12T13:20:35.797Z,13.20
2022-12-12T13:23:35.959Z,14.80
2022-12-12T13:26:10.688Z,13.13
2022-12-12T13:28:42.716Z,12.80
2022-12-12T13:31:34.881Z,13.98
2022-12-12T13:34:06.669Z,14.55
2022-12-12T13:36:38.177Z,13.10
2022-12-12T13:39:09.387Z,12.38
2022-12-12T13:41:58.258Z,13.32
2022-12-12T13:44:38.556Z,13.10
2022-12-12T13:47:14.221Z,13.82
2022-12-12T13:49:53.139Z,15.98
2022-12-12T13:52:26.260Z,11.80
2022-12-12T13:54:57.416Z,18.63
2022-12-12T13:57:34.960Z,16.30
2022-12-12T14:00:19.966Z,17.15
2022-12-12T14:03:01.466Z,14.27
2022-12-12T14:05:33.643Z,12.63
2022-12-12T14:08:09.166Z,13.40
2022-12-12T14:10:41.009Z,12.55
2022-12-12T14:13:31.820Z,11.48
2022-12-12T14:16:06.504Z,16.23
2022-12-12T14:18:40.859Z,27.13
2022-12-12T14:21:12.129Z,10.97
2022-12-12T14:23:42.404Z,10.70
2022-12-12T14:26:47.785Z,11.05
2022-12-12T14:29:25.171Z,35.42
2022-12-12T14:32:01.348Z,17.02
2022-12-12T14:34:37.064Z,12.95
2022-12-12T14:37:20.457Z,10.68
2022-12-12T14:40:13.842Z,10.82
2022-12-12T14:43:21.066Z,10.48
2022-12-12T14:45:37.419Z,11.90
2022-12-12T14:48:17.661Z,10.60
2022-12-12T14:50:50.860Z,11.38
2022-12-12T14:53:21.185Z,10.57
2022-12-12T14:55:55.581Z,11.02
2022-12-12T14:58:27.788Z,10.77
2022-12-12T15:00:59.138Z,10.45
2022-12-12T15:03:32.479Z,11.10
2022-12-12T15:06:33.126Z,10.57
2022-12-12T15:09:16.912Z,10.88
2022-12-12T15:11:46.111Z,10.38
2022-12-12T15:14:20.718Z,10.55
2022-12-12T15:16:53.954Z,11.85
2022-12-12T15:19:27.388Z,10.38
2022-12-12T15:21:58.044Z,10.00
2022-12-12T15:24:28.644Z,8.98
2022-12-12T15:26:58.128Z,10.90
2022-12-12T15:29:28.941Z,10.13
2022-12-12T15:32:00.787Z,9.43
2022-12-12T15:34:41.508Z,9.80
2022-12-12T15:37:27.046Z,10.52
2022-12-12T15:40:00.924Z,10.63
2022-12-12T15:42:29.710Z,10.48
2022-12-12T15:44:57.947Z,9.57
2022-12-12T15:47:26.303Z,10.73
2022-12-12T15:49:55.169Z,9.80
2022-12-12T15:52:30.373Z,10.15
2022-12-12T15:57:46.559Z,10.33
2022-12-12T16:00:29.306Z,10.15
2022-12-12T16:03:04.029Z,11.57
2022-12-12T16:05:34.914Z,11.07
2022-12-12T16:08:32.228Z,11.05
2022-12-12T16:11:02.621Z,11.00
2022-12-12T16:13:38.361Z,10.35
2022-12-12T16:16:34.837Z,10.93
2022-12-12T16:19:03.746Z,10.50
2022-12-12T16:21:32.492Z,11.05
2022-12-12T16:24:13.852Z,10.65
2022-12-12T16:26:41.908Z,10.18
2022-12-12T16:29:10.621Z,10.80
2022-12-12T16:31:38.902Z,10.45
2022-12-12T16:34:07.797Z,10.48
2022-12-12T16:36:42.018Z,10.55
2022-12-12T16:39:14.339Z,11.77
2022-12-12T16:41:42.871Z,11.30
2022-12-12T16:44:12.472Z,11.80
2022-12-12T16:46:40.677Z,11.50
2022-12-12T16:49:15.137Z,11.23
2022-12-12T16:51:43.874Z,11.18
2022-12-12T16:54:18.468Z,11.07
2022-12-12T16:56:52.618Z,11.82
2022-12-12T16:59:21.764Z,10.30
2022-12-12T17:01:49.965Z,11.23
2022-12-12T17:04:23.343Z,11.45
2022-12-12T17:06:52.201Z,11.70
2022-12-12T17:09:29.993Z,11.52
2022-12-12T17:11:58.278Z,11.95
2022-12-12T17:14:27.842Z,11.48
2022-12-12T17:16:56.307Z,12.60
2022-12-12T17:19:26.645Z,12.60
2022-12-12T17:21:55.323Z,13.90
2022-12-12T17:24:24.926Z,12.30
2022-12-12T17:26:53.463Z,14.07
2022-12-12T17:29:21.594Z,15.50
2022-12-12T17:31:50.528Z,13.68
2022-12-12T17:34:18.628Z,13.82
2022-12-12T17:36:46.710Z,13.50
2022-12-12T17:39:14.920Z,12.43
2022-12-12T17:41:44.881Z,14.02
2022-12-12T17:44:13.033Z,14.07
2022-12-12T17:46:42.221Z,13.90
2022-12-12T17:49:10.116Z,14.60
2022-12-12T17:51:38.448Z,14.10
2022-12-12T17:54:06.296Z,14.23
2022-12-12T17:56:34.769Z,14.70
2022-12-12T17:59:06.160Z,16.00
2022-12-12T18:01:34.724Z,29.45
2022-12-12T18:04:05.585Z,29.52
2022-12-12T18:06:35.955Z,24.85
2022-12-12T18:09:05.715Z,20.05
2022-12-12T18:11:36.089Z,19.38
2022-12-12T18:14:08.100Z,18.65
2022-12-12T18:16:37.831Z,21.88
2022-12-12T18:19:05.824Z,17.73
2022-12-12T18:21:59.926Z,17.13
2022-12-12T18:24:25.699Z,14.88
2022-12-12T18:26:54.434Z,15.48
2022-12-12T18:29:24.713Z,15.93
2022-12-12T18:31:53.422Z,17.60
2022-12-12T18:34:22.653Z,16.48
2022-12-12T18:36:50.918Z,22.40
2022-12-12T18:39:19.051Z,24.55
2022-12-12T18:41:49.878Z,31.95
2022-12-12T18:44:17.959Z,70.70
2022-12-12T18:46:47.296Z,44.30
2022-12-12T18:49:18.602Z,35.60
2022-12-12T18:51:46.874Z,24.52
2022-12-12T18:54:16.577Z,20.55
2022-12-12T18:56:45.544Z,18.38
2022-12-12T18:59:13.735Z,22.77
2022-12-12T19:01:41.899Z,21.30
2022-12-12T19:04:14.350Z,19.15
2022-12-12T19:06:44.462Z,18.87
2022-12-12T19:09:15.552Z,16.75
2022-12-12T19:11:44.278Z,18.33
2022-12-12T19:14:14.490Z,17.15
2022-12-12T19:16:42.510Z,18.13
2022-12-12T19:19:12.665Z,15.85
2022-12-12T19:21:42.577Z,15.77
2022-12-12T19:24:12.719Z,15.43
2022-12-12T19:26:43.746Z,17.50
2022-12-12T19:29:13.913Z,17.42
2022-12-12T19:31:42.102Z,17.27
2022-12-12T19:34:13.065Z,17.17
2022-12-12T19:36:41.502Z,16.98
2022-12-12T19:39:10.219Z,17.48
2022-12-12T19:41:38.761Z,20.17
2022-12-12T19:44:08.941Z,17.75
2022-12-12T19:46:37.292Z,18.27
2022-12-12T19:49:08.388Z,20.00
2022-12-12T19:51:40.152Z,19.02
2022-12-12T19:54:10.293Z,18.05
2022-12-12T19:56:41.333Z,20.17
2022-12-12T19:59:11.569Z,18.48
2022-12-12T20:01:39.725Z,19.50
2022-12-12T20:04:10.382Z,19.45
2022-12-12T20:06:45.251Z,18.38
2022-12-12T20:09:16.370Z,19.92
2022-12-12T20:11:45.482Z,19.88
2022-12-12T20:14:16.750Z,20.48
2022-12-12T20:16:45.522Z,20.67
2022-12-12T20:19:14.636Z,21.35
2022-12-12T20:22:02.176Z,21.33
2022-12-12T20:24:32.017Z,22.67
2022-12-12T20:27:00.469Z,24.08
2022-12-12T20:29:29.188Z,22.23
2022-12-12T20:31:59.783Z,22.60
2022-12-12T20:34:28.127Z,20.17
2022-12-12T20:36:57.970Z,22.67
2022-12-12T20:39:26.199Z,21.08
2022-12-12T20:41:55.169Z,21.75
2022-12-12T20:44:24.276Z,24.67
2022-12-12T20:46:52.572Z,23.02
2022-12-12T20:49:24.124Z,21.23
2022-12-12T20:51:59.413Z,21.15
2022-12-12T20:54:30.308Z,21.70
2022-12-12T20:56:59.289Z,21.55
2022-12-12T20:59:27.797Z,21.88
2022-12-12T21:01:56.401Z,21.08
2022-12-12T21:04:25.032Z,21.45
2022-12-12T21:06:52.961Z,21.38
2022-12-12T21:09:26.709Z,22.27
2022-12-12T21:11:58.348Z,21.45
2022-12-12T21:14:27.674Z,22.50
2022-12-12T21:16:56.048Z,22.58
2022-12-12T21:19:24.695Z,22.02
2022-12-12T21:21:53.395Z,23.35
2022-12-12T21:24:22.783Z,23.20
2022-12-12T21:26:51.717Z,23.63
2022-12-12T21:29:20.981Z,24.40
2022-12-12T21:31:52.176Z,24.48
2022-12-12T21:34:21.572Z,23.58
2022-12-12T21:36:52.064Z,23.08
2022-12-12T21:39:20.008Z,24.83
2022-12-12T21:41:47.929Z,23.67
2022-12-12T21:44:16.214Z,22.02
2022-12-12T21:46:45.503Z,21.33
2022-12-12T21:49:28.162Z,21.27
2022-12-12T21:51:57.625Z,20.15
2022-12-12T21:54:26.225Z,19.50
2022-12-12T21:56:54.899Z,19.30
2022-12-12T21:59:23.275Z,19.23
2022-12-12T22:01:54.933Z,19.80
2022-12-12T22:04:22.916Z,21.08
2022-12-12T22:06:51.621Z,19.52
2022-12-12T22:09:19.667Z,19.15
2022-12-12T22:11:52.191Z,19.35
2022-12-12T22:14:30.738Z,20.92
2022-12-12T22:17:00.423Z,18.50
2022-12-12T22:19:28.397Z,18.88
2022-12-12T22:21:56.360Z,19.85
2022-12-12T22:24:24.629Z,19.88
2022-12-12T22:26:52.713Z,21.40
2022-12-12T22:29:21.819Z,20.48
2022-12-12T22:31:52.272Z,20.25
2022-12-12T22:34:24.835Z,21.58
2022-12-12T22:36:54.169Z,21.65
2022-12-12T22:39:24.030Z,20.90
2022-12-12T22:41:52.494Z,23.05
2022-12-12T22:44:22.636Z,27.05
2022-12-12T22:46:52.647Z,26.58
2022-12-12T22:49:26.058Z,24.50
2022-12-12T22:51:57.472Z,24.48
2022-12-12T22:54:26.060Z,22.58
2022-12-12T22:56:54.855Z,24.02
2022-12-12T22:59:22.809Z,26.00
2022-12-12T23:01:51.188Z,25.08
2022-12-12T23:04:19.224Z,32.25
2022-12-12T23:06:48.966Z,27.05
2022-12-12T23:09:23.110Z,25.63
2022-12-12T23:11:51.482Z,24.83
2022-12-12T23:14:22.785Z,23.63
2022-12-12T23:16:51.808Z,24.17
2022-12-12T23:19:21.294Z,20.77
2022-12-12T23:21:51.010Z,25.25
2022-12-12T23:24:19.357Z,23.95
2022-12-12T23:26:47.215Z,20.77
2022-12-12T23:29:17.329Z,23.08
2022-12-12T23:31:45.746Z,22.02
2022-12-12T23:34:18.083Z,21.98
2022-12-12T23:36:48.805Z,22.92
2022-12-12T23:39:19.179Z,20.65
2022-12-12T23:41:47.143Z,21.63
2022-12-12T23:44:17.651Z,21.92
2022-12-12T23:46:46.965Z,21.65
2022-12-12T23:49:16.852Z,20.67
2022-12-12T23:51:47.472Z,22.45
2022-12-12T23:54:18.960Z,20.45
2022-12-12T23:56:48.389Z,20.70
2022-12-12T23:59:18.351Z,19.98
